sensor_id;sensor_type;location;lat;lon;timestamp;P1;durP1;ratioP1;P2;durP2;ratioP2
43817;SDS011;29868;47.360;18.984;2023-06-10T00:01:00;17.40;;;11.60;;
43817;SDS011;29868;47.360;18.984;2023-06-10T00:03:26;16.67;;;12.27;;
43817;SDS011;29868;47.360;18.984;2023-06-10T00:05:51;18.20;;;12.35;;
43817;SDS011;29868;47.360;18.984;2023-06-10T00:08:18;17.95;;;11.82;;
43817;SDS011;29868;47.360;18.984;2023-06-10T00:10:44;19.23;;;12.52;;
43817;SDS011;29868;47.360;18.984;2023-06-10T00:13:10;16.45;;;12.23;;
43817;SDS011;29868;47.360;18.984;2023-06-10T00:15:36;16.95;;;11.95;;
43817;SDS011;29868;47.360;18.984;2023-06-10T00:18:02;16.48;;;12.35;;
43817;SDS011;29868;47.360;18.984;2023-06-10T00:20:28;20.00;;;12.82;;
43817;SDS011;29868;47.360;18.984;2023-06-10T00:22:55;17.75;;;12.15;;
43817;SDS011;29868;47.360;18.984;2023-06-10T00:25:22;17.95;;;12.57;;
43817;SDS011;29868;47.360;18.984;2023-06-10T00:27:47;19.30;;;13.32;;
43817;SDS011;29868;47.360;18.984;2023-06-10T00:30:13;17.10;;;12.32;;
43817;SDS011;29868;47.360;18.984;2023-06-10T00:32:38;20.13;;;12.45;;
43817;SDS011;29868;47.360;18.984;2023-06-10T00:35:04;16.95;;;12.02;;
43817;SDS011;29868;47.360;18.984;2023-06-10T00:37:30;21.83;;;12.93;;
43817;SDS011;29868;47.360;18.984;2023-06-10T00:39:57;22.13;;;12.88;;
43817;SDS011;29868;47.360;18.984;2023-06-10T00:42:22;20.77;;;13.70;;
43817;SDS011;29868;47.360;18.984;2023-06-10T00:44:49;20.20;;;12.70;;
43817;SDS011;29868;47.360;18.984;2023-06-10T00:47:15;17.75;;;12.68;;
43817;SDS011;29868;47.360;18.984;2023-06-10T00:49:41;20.17;;;13.32;;
43817;SDS011;29868;47.360;18.984;2023-06-10T00:52:07;20.23;;;12.90;;
43817;SDS011;29868;47.360;18.984;2023-06-10T00:54:35;22.15;;;13.75;;
43817;SDS011;29868;47.360;18.984;2023-06-10T00:57:02;18.23;;;12.55;;
43817;SDS011;29868;47.360;18.984;2023-06-10T00:59:28;19.52;;;13.43;;
43817;SDS011;29868;47.360;18.984;2023-06-10T01:01:54;18.85;;;13.38;;
43817;SDS011;29868;47.360;18.984;2023-06-10T01:04:21;21.20;;;14.07;;
43817;SDS011;29868;47.360;18.984;2023-06-10T01:14:53;21.25;;;12.80;;
43817;SDS011;29868;47.360;18.984;2023-06-10T01:17:20;20.55;;;13.52;;
43817;SDS011;29868;47.360;18.984;2023-06-10T01:19:53;20.48;;;13.65;;
43817;SDS011;29868;47.360;18.984;2023-06-10T01:22:20;19.30;;;13.20;;
43817;SDS011;29868;47.360;18.984;2023-06-10T01:24:47;20.75;;;14.38;;
43817;SDS011;29868;47.360;18.984;2023-06-10T01:27:15;21.10;;;14.02;;
43817;SDS011;29868;47.360;18.984;2023-06-10T01:29:45;22.02;;;14.20;;
43817;SDS011;29868;47.360;18.984;2023-06-10T01:32:23;22.02;;;14.13;;
43817;SDS011;29868;47.360;18.984;2023-06-10T01:34:50;21.65;;;14.13;;
43817;SDS011;29868;47.360;18.984;2023-06-10T01:37:17;23.08;;;14.13;;
43817;SDS011;29868;47.360;18.984;2023-06-10T01:39:46;26.52;;;14.20;;
43817;SDS011;29868;47.360;18.984;2023-06-10T01:42:12;24.60;;;15.55;;
43817;SDS011;29868;47.360;18.984;2023-06-10T01:44:38;24.05;;;15.27;;
43817;SDS011;29868;47.360;18.984;2023-06-10T01:47:05;24.52;;;15.25;;
43817;SDS011;29868;47.360;18.984;2023-06-10T01:49:30;26.05;;;15.95;;
43817;SDS011;29868;47.360;18.984;2023-06-10T01:51:56;25.70;;;16.38;;
43817;SDS011;29868;47.360;18.984;2023-06-10T01:54:21;22.52;;;15.10;;
43817;SDS011;29868;47.360;18.984;2023-06-10T01:56:46;24.02;;;15.52;;
43817;SDS011;29868;47.360;18.984;2023-06-10T01:59:12;22.92;;;15.20;;
43817;SDS011;29868;47.360;18.984;2023-06-10T02:01:37;23.65;;;14.57;;
43817;SDS011;29868;47.360;18.984;2023-06-10T02:04:03;20.88;;;14.27;;
43817;SDS011;29868;47.360;18.984;2023-06-10T02:06:28;22.92;;;14.05;;
43817;SDS011;29868;47.360;18.984;2023-06-10T02:08:53;24.23;;;14.52;;
43817;SDS011;29868;47.360;18.984;2023-06-10T02:11:19;21.60;;;13.73;;
43817;SDS011;29868;47.360;18.984;2023-06-10T02:13:44;20.63;;;14.43;;
43817;SDS011;29868;47.360;18.984;2023-06-10T02:16:10;26.00;;;14.80;;
43817;SDS011;29868;47.360;18.984;2023-06-10T02:18:38;23.23;;;14.27;;
43817;SDS011;29868;47.360;18.984;2023-06-10T02:21:05;21.30;;;14.23;;
43817;SDS011;29868;47.360;18.984;2023-06-10T02:23:31;21.30;;;14.38;;
43817;SDS011;29868;47.360;18.984;2023-06-10T02:25:57;22.80;;;14.20;;
43817;SDS011;29868;47.360;18.984;2023-06-10T02:28:22;23.85;;;14.73;;
43817;SDS011;29868;47.360;18.984;2023-06-10T02:30:48;23.65;;;15.10;;
43817;SDS011;29868;47.360;18.984;2023-06-10T02:33:13;22.58;;;14.95;;
43817;SDS011;29868;47.360;18.984;2023-06-10T02:35:40;24.63;;;15.35;;
43817;SDS011;29868;47.360;18.984;2023-06-10T02:38:06;23.63;;;15.70;;
43817;SDS011;29868;47.360;18.984;2023-06-10T02:40:31;27.45;;;15.70;;
43817;SDS011;29868;47.360;18.984;2023-06-10T02:42:57;27.30;;;15.93;;
43817;SDS011;29868;47.360;18.984;2023-06-10T02:45:23;27.02;;;16.15;;
43817;SDS011;29868;47.360;18.984;2023-06-10T02:47:49;27.27;;;16.10;;
43817;SDS011;29868;47.360;18.984;2023-06-10T02:50:14;29.30;;;17.10;;
43817;SDS011;29868;47.360;18.984;2023-06-10T02:52:40;28.33;;;17.17;;
43817;SDS011;29868;47.360;18.984;2023-06-10T02:55:06;29.75;;;17.48;;
43817;SDS011;29868;47.360;18.984;2023-06-10T02:57:31;27.15;;;16.70;;
43817;SDS011;29868;47.360;18.984;2023-06-10T02:59:57;29.23;;;16.98;;
43817;SDS011;29868;47.360;18.984;2023-06-10T03:02:23;29.00;;;16.73;;
43817;SDS011;29868;47.360;18.984;2023-06-10T03:04:56;29.80;;;18.00;;
43817;SDS011;29868;47.360;18.984;2023-06-10T03:07:22;28.73;;;17.08;;
43817;SDS011;29868;47.360;18.984;2023-06-10T03:09:48;30.52;;;16.85;;
43817;SDS011;29868;47.360;18.984;2023-06-10T03:12:14;28.13;;;16.95;;
43817;SDS011;29868;47.360;18.984;2023-06-10T03:14:40;26.90;;;17.17;;
43817;SDS011;29868;47.360;18.984;2023-06-10T03:17:06;30.65;;;17.63;;
43817;SDS011;29868;47.360;18.984;2023-06-10T03:19:33;28.92;;;17.02;;
43817;SDS011;29868;47.360;18.984;2023-06-10T03:22:09;24.52;;;15.88;;
43817;SDS011;29868;47.360;18.984;2023-06-10T03:24:36;26.48;;;15.93;;
43817;SDS011;29868;47.360;18.984;2023-06-10T03:27:01;24.27;;;15.80;;
43817;SDS011;29868;47.360;18.984;2023-06-10T03:29:29;22.17;;;14.50;;
43817;SDS011;29868;47.360;18.984;2023-06-10T03:31:55;23.77;;;14.07;;
43817;SDS011;29868;47.360;18.984;2023-06-10T03:34:21;22.50;;;14.02;;
43817;SDS011;29868;47.360;18.984;2023-06-10T03:36:48;19.45;;;13.25;;
43817;SDS011;29868;47.360;18.984;2023-06-10T03:39:14;22.88;;;13.68;;
43817;SDS011;29868;47.360;18.984;2023-06-10T03:41:40;17.90;;;12.35;;
43817;SDS011;29868;47.360;18.984;2023-06-10T03:44:05;16.63;;;11.95;;
43817;SDS011;29868;47.360;18.984;2023-06-10T03:46:31;18.02;;;11.65;;
43817;SDS011;29868;47.360;18.984;2023-06-10T03:48:56;15.20;;;10.70;;
43817;SDS011;29868;47.360;18.984;2023-06-10T03:51:25;14.50;;;10.43;;
43817;SDS011;29868;47.360;18.984;2023-06-10T03:53:51;16.27;;;10.27;;
43817;SDS011;29868;47.360;18.984;2023-06-10T03:56:16;13.75;;;9.48;;
43817;SDS011;29868;47.360;18.984;2023-06-10T03:58:42;12.00;;;9.13;;
43817;SDS011;29868;47.360;18.984;2023-06-10T04:01:07;13.57;;;9.30;;
43817;SDS011;29868;47.360;18.984;2023-06-10T04:03:32;10.98;;;8.68;;
43817;SDS011;29868;47.360;18.984;2023-06-10T04:05:58;11.43;;;7.90;;
43817;SDS011;29868;47.360;18.984;2023-06-10T04:08:23;10.50;;;7.90;;
43817;SDS011;29868;47.360;18.984;2023-06-10T04:10:49;14.52;;;8.30;;
43817;SDS011;29868;47.360;18.984;2023-06-10T04:13:14;10.98;;;7.70;;
43817;SDS011;29868;47.360;18.984;2023-06-10T04:15:40;11.00;;;8.10;;
43817;SDS011;29868;47.360;18.984;2023-06-10T04:18:05;10.32;;;7.70;;
43817;SDS011;29868;47.360;18.984;2023-06-10T04:20:31;10.98;;;7.32;;
43817;SDS011;29868;47.360;18.984;2023-06-10T04:22:57;10.13;;;6.43;;
43817;SDS011;29868;47.360;18.984;2023-06-10T04:25:22;7.63;;;5.80;;
43817;SDS011;29868;47.360;18.984;2023-06-10T04:27:49;6.95;;;5.60;;
43817;SDS011;29868;47.360;18.984;2023-06-10T04:30:15;6.15;;;5.10;;
43817;SDS011;29868;47.360;18.984;2023-06-10T04:32:41;5.95;;;5.07;;
43817;SDS011;29868;47.360;18.984;2023-06-10T04:35:07;7.18;;;4.68;;
43817;SDS011;29868;47.360;18.984;2023-06-10T04:37:33;6.07;;;4.65;;
43817;SDS011;29868;47.360;18.984;2023-06-10T04:39:58;5.38;;;4.50;;
43817;SDS011;29868;47.360;18.984;2023-06-10T04:42:24;6.13;;;4.65;;
43817;SDS011;29868;47.360;18.984;2023-06-10T04:44:49;5.43;;;4.60;;
43817;SDS011;29868;47.360;18.984;2023-06-10T04:47:15;7.57;;;4.72;;
43817;SDS011;29868;47.360;18.984;2023-06-10T04:49:42;6.60;;;4.43;;
43817;SDS011;29868;47.360;18.984;2023-06-10T04:52:07;5.32;;;4.20;;
43817;SDS011;29868;47.360;18.984;2023-06-10T04:54:33;6.03;;;4.53;;
43817;SDS011;29868;47.360;18.984;2023-06-10T04:56:58;7.50;;;4.50;;
43817;SDS011;29868;47.360;18.984;2023-06-10T04:59:25;7.60;;;4.32;;
43817;SDS011;29868;47.360;18.984;2023-06-10T05:01:51;5.55;;;4.00;;
43817;SDS011;29868;47.360;18.984;2023-06-10T05:04:16;5.90;;;4.75;;
43817;SDS011;29868;47.360;18.984;2023-06-10T05:06:41;6.10;;;4.47;;
43817;SDS011;29868;47.360;18.984;2023-06-10T05:09:07;6.00;;;4.55;;
43817;SDS011;29868;47.360;18.984;2023-06-10T05:11:32;6.80;;;4.50;;
43817;SDS011;29868;47.360;18.984;2023-06-10T05:13:58;6.50;;;5.20;;
43817;SDS011;29868;47.360;18.984;2023-06-10T05:16:23;10.73;;;5.10;;
43817;SDS011;29868;47.360;18.984;2023-06-10T05:18:48;8.93;;;5.88;;
43817;SDS011;29868;47.360;18.984;2023-06-10T05:21:15;8.15;;;5.43;;
43817;SDS011;29868;47.360;18.984;2023-06-10T05:23:41;7.22;;;4.88;;
43817;SDS011;29868;47.360;18.984;2023-06-10T05:26:06;7.00;;;4.60;;
43817;SDS011;29868;47.360;18.984;2023-06-10T05:28:32;4.50;;;3.65;;
43817;SDS011;29868;47.360;18.984;2023-06-10T05:30:57;4.45;;;3.45;;
43817;SDS011;29868;47.360;18.984;2023-06-10T05:33:23;5.28;;;3.65;;
43817;SDS011;29868;47.360;18.984;2023-06-10T05:35:48;6.82;;;3.90;;
43817;SDS011;29868;47.360;18.984;2023-06-10T05:38:14;6.35;;;3.53;;
43817;SDS011;29868;47.360;18.984;2023-06-10T05:40:39;5.07;;;3.38;;
43817;SDS011;29868;47.360;18.984;2023-06-10T05:43:05;5.93;;;3.67;;
43817;SDS011;29868;47.360;18.984;2023-06-10T05:45:30;5.15;;;3.72;;
43817;SDS011;29868;47.360;18.984;2023-06-10T05:47:55;5.70;;;3.45;;
43817;SDS011;29868;47.360;18.984;2023-06-10T05:50:21;4.15;;;3.35;;
43817;SDS011;29868;47.360;18.984;2023-06-10T05:52:46;4.90;;;3.45;;
43817;SDS011;29868;47.360;18.984;2023-06-10T05:55:12;4.93;;;3.28;;
43817;SDS011;29868;47.360;18.984;2023-06-10T05:57:37;5.13;;;3.42;;
43817;SDS011;29868;47.360;18.984;2023-06-10T06:00:03;4.88;;;3.65;;
43817;SDS011;29868;47.360;18.984;2023-06-10T06:02:29;5.68;;;3.20;;
43817;SDS011;29868;47.360;18.984;2023-06-10T06:04:54;5.75;;;3.65;;
43817;SDS011;29868;47.360;18.984;2023-06-10T06:07:20;5.82;;;3.47;;
43817;SDS011;29868;47.360;18.984;2023-06-10T06:09:46;4.68;;;3.33;;
43817;SDS011;29868;47.360;18.984;2023-06-10T06:12:12;4.55;;;3.42;;
43817;SDS011;29868;47.360;18.984;2023-06-10T06:14:37;4.18;;;3.65;;
43817;SDS011;29868;47.360;18.984;2023-06-10T06:17:06;6.00;;;3.80;;
43817;SDS011;29868;47.360;18.984;2023-06-10T06:19:32;5.20;;;3.25;;
43817;SDS011;29868;47.360;18.984;2023-06-10T06:21:58;5.43;;;3.42;;
43817;SDS011;29868;47.360;18.984;2023-06-10T06:24:23;5.60;;;3.15;;
43817;SDS011;29868;47.360;18.984;2023-06-10T06:26:49;5.18;;;3.30;;
43817;SDS011;29868;47.360;18.984;2023-06-10T06:29:14;5.35;;;3.33;;
43817;SDS011;29868;47.360;18.984;2023-06-10T06:31:40;3.92;;;3.03;;
43817;SDS011;29868;47.360;18.984;2023-06-10T06:34:05;6.63;;;3.60;;
43817;SDS011;29868;47.360;18.984;2023-06-10T06:36:31;4.93;;;3.60;;
43817;SDS011;29868;47.360;18.984;2023-06-10T06:38:56;5.03;;;3.28;;
43817;SDS011;29868;47.360;18.984;2023-06-10T06:41:23;5.45;;;3.72;;
43817;SDS011;29868;47.360;18.984;2023-06-10T06:43:51;5.50;;;3.50;;
43817;SDS011;29868;47.360;18.984;2023-06-10T06:46:16;7.93;;;3.50;;
43817;SDS011;29868;47.360;18.984;2023-06-10T06:48:42;5.63;;;3.38;;
43817;SDS011;29868;47.360;18.984;2023-06-10T06:51:07;5.72;;;3.80;;
43817;SDS011;29868;47.360;18.984;2023-06-10T06:53:32;4.72;;;3.13;;
43817;SDS011;29868;47.360;18.984;2023-06-10T06:55:58;5.43;;;3.88;;
43817;SDS011;29868;47.360;18.984;2023-06-10T06:58:23;4.63;;;3.47;;
43817;SDS011;29868;47.360;18.984;2023-06-10T07:00:49;4.68;;;3.40;;
43817;SDS011;29868;47.360;18.984;2023-06-10T07:03:15;5.55;;;4.00;;
43817;SDS011;29868;47.360;18.984;2023-06-10T07:05:40;5.20;;;4.13;;
43817;SDS011;29868;47.360;18.984;2023-06-10T07:08:06;5.50;;;4.20;;
43817;SDS011;29868;47.360;18.984;2023-06-10T07:10:31;5.97;;;4.05;;
43817;SDS011;29868;47.360;18.984;2023-06-10T07:12:57;7.70;;;4.20;;
43817;SDS011;29868;47.360;18.984;2023-06-10T07:15:23;6.75;;;4.30;;
43817;SDS011;29868;47.360;18.984;2023-06-10T07:17:48;5.65;;;4.28;;
43817;SDS011;29868;47.360;18.984;2023-06-10T07:20:14;8.55;;;4.82;;
43817;SDS011;29868;47.360;18.984;2023-06-10T07:22:40;6.15;;;4.28;;
43817;SDS011;29868;47.360;18.984;2023-06-10T07:25:06;7.20;;;4.28;;
43817;SDS011;29868;47.360;18.984;2023-06-10T07:27:32;5.68;;;4.72;;
43817;SDS011;29868;47.360;18.984;2023-06-10T07:29:57;5.63;;;4.75;;
43817;SDS011;29868;47.360;18.984;2023-06-10T07:32:23;5.80;;;4.15;;
43817;SDS011;29868;47.360;18.984;2023-06-10T07:34:49;7.22;;;3.95;;
43817;SDS011;29868;47.360;18.984;2023-06-10T07:37:15;7.47;;;4.35;;
43817;SDS011;29868;47.360;18.984;2023-06-10T07:39:41;6.68;;;4.32;;
43817;SDS011;29868;47.360;18.984;2023-06-10T07:42:07;5.50;;;4.40;;
43817;SDS011;29868;47.360;18.984;2023-06-10T07:44:32;5.47;;;4.32;;
43817;SDS011;29868;47.360;18.984;2023-06-10T07:46:58;5.63;;;4.55;;
43817;SDS011;29868;47.360;18.984;2023-06-10T07:49:23;5.72;;;4.35;;
43817;SDS011;29868;47.360;18.984;2023-06-10T07:51:50;5.93;;;4.22;;
43817;SDS011;29868;47.360;18.984;2023-06-10T07:54:15;6.93;;;4.47;;
43817;SDS011;29868;47.360;18.984;2023-06-10T07:56:41;6.57;;;4.78;;
43817;SDS011;29868;47.360;18.984;2023-06-10T07:59:06;6.63;;;4.90;;
43817;SDS011;29868;47.360;18.984;2023-06-10T08:01:32;7.38;;;5.28;;
43817;SDS011;29868;47.360;18.984;2023-06-10T08:03:58;7.03;;;5.18;;
43817;SDS011;29868;47.360;18.984;2023-06-10T08:06:23;5.93;;;4.82;;
43817;SDS011;29868;47.360;18.984;2023-06-10T08:08:49;7.85;;;4.93;;
43817;SDS011;29868;47.360;18.984;2023-06-10T08:11:14;10.13;;;6.80;;
43817;SDS011;29868;47.360;18.984;2023-06-10T08:13:39;8.05;;;5.20;;
43817;SDS011;29868;47.360;18.984;2023-06-10T08:16:05;5.82;;;4.50;;
43817;SDS011;29868;47.360;18.984;2023-06-10T08:18:30;6.28;;;4.50;;
43817;SDS011;29868;47.360;18.984;2023-06-10T08:20:56;6.43;;;4.20;;
43817;SDS011;29868;47.360;18.984;2023-06-10T08:23:22;5.22;;;4.70;;
43817;SDS011;29868;47.360;18.984;2023-06-10T08:25:47;5.75;;;4.40;;
43817;SDS011;29868;47.360;18.984;2023-06-10T08:28:13;6.38;;;4.72;;
43817;SDS011;29868;47.360;18.984;2023-06-10T08:30:38;6.68;;;4.60;;
43817;SDS011;29868;47.360;18.984;2023-06-10T08:33:03;6.63;;;4.43;;
43817;SDS011;29868;47.360;18.984;2023-06-10T08:35:29;6.63;;;5.10;;
43817;SDS011;29868;47.360;18.984;2023-06-10T08:37:54;6.57;;;4.93;;
43817;SDS011;29868;47.360;18.984;2023-06-10T08:40:20;7.95;;;5.65;;
43817;SDS011;29868;47.360;18.984;2023-06-10T08:42:48;6.80;;;5.55;;
43817;SDS011;29868;47.360;18.984;2023-06-10T08:45:18;8.38;;;6.20;;
43817;SDS011;29868;47.360;18.984;2023-06-10T08:47:45;7.68;;;6.32;;
43817;SDS011;29868;47.360;18.984;2023-06-10T08:50:13;7.68;;;6.25;;
43817;SDS011;29868;47.360;18.984;2023-06-10T08:52:42;7.20;;;6.25;;
43817;SDS011;29868;47.360;18.984;2023-06-10T08:57:37;9.90;;;7.20;;
43817;SDS011;29868;47.360;18.984;2023-06-10T09:00:03;9.27;;;7.38;;
43817;SDS011;29868;47.360;18.984;2023-06-10T09:02:31;9.25;;;7.20;;
43817;SDS011;29868;47.360;18.984;2023-06-10T09:05:00;9.30;;;7.60;;
43817;SDS011;29868;47.360;18.984;2023-06-10T09:07:26;10.52;;;8.57;;
43817;SDS011;29868;47.360;18.984;2023-06-10T09:09:51;13.27;;;8.50;;
43817;SDS011;29868;47.360;18.984;2023-06-10T09:12:18;10.18;;;8.43;;
43817;SDS011;29868;47.360;18.984;2023-06-10T09:14:44;9.55;;;8.43;;
43817;SDS011;29868;47.360;18.984;2023-06-10T09:17:10;10.52;;;8.68;;
43817;SDS011;29868;47.360;18.984;2023-06-10T09:19:36;9.23;;;8.13;;
43817;SDS011;29868;47.360;18.984;2023-06-10T09:22:03;9.20;;;8.00;;
43817;SDS011;29868;47.360;18.984;2023-06-10T09:24:29;9.77;;;8.25;;
43817;SDS011;29868;47.360;18.984;2023-06-10T09:27:01;10.07;;;8.82;;
43817;SDS011;29868;47.360;18.984;2023-06-10T09:29:28;9.93;;;8.30;;
43817;SDS011;29868;47.360;18.984;2023-06-10T09:31:54;10.05;;;7.97;;
43817;SDS011;29868;47.360;18.984;2023-06-10T09:34:20;9.32;;;8.13;;
43817;SDS011;29868;47.360;18.984;2023-06-10T09:36:49;10.18;;;7.93;;
43817;SDS011;29868;47.360;18.984;2023-06-10T09:39:15;9.45;;;7.82;;
43817;SDS011;29868;47.360;18.984;2023-06-10T09:41:42;8.32;;;7.30;;
43817;SDS011;29868;47.360;18.984;2023-06-10T09:44:11;10.88;;;7.93;;
43817;SDS011;29868;47.360;18.984;2023-06-10T09:46:48;9.00;;;7.68;;
43817;SDS011;29868;47.360;18.984;2023-06-10T09:49:16;10.73;;;7.60;;
43817;SDS011;29868;47.360;18.984;2023-06-10T09:51:54;9.07;;;7.68;;
43817;SDS011;29868;47.360;18.984;2023-06-10T09:54:20;10.60;;;8.63;;
43817;SDS011;29868;47.360;18.984;2023-06-10T09:56:47;10.35;;;8.45;;
43817;SDS011;29868;47.360;18.984;2023-06-10T09:59:13;10.93;;;8.80;;
43817;SDS011;29868;47.360;18.984;2023-06-10T10:01:39;11.00;;;8.43;;
43817;SDS011;29868;47.360;18.984;2023-06-10T10:04:04;9.73;;;7.95;;
43817;SDS011;29868;47.360;18.984;2023-06-10T10:06:30;9.95;;;8.50;;
43817;SDS011;29868;47.360;18.984;2023-06-10T10:08:55;10.52;;;8.68;;
43817;SDS011;29868;47.360;18.984;2023-06-10T10:11:21;10.60;;;8.85;;
43817;SDS011;29868;47.360;18.984;2023-06-10T10:13:48;10.80;;;8.55;;
43817;SDS011;29868;47.360;18.984;2023-06-10T10:16:16;8.77;;;7.38;;
43817;SDS011;29868;47.360;18.984;2023-06-10T10:18:49;9.30;;;7.72;;
43817;SDS011;29868;47.360;18.984;2023-06-10T10:21:20;10.77;;;8.20;;
43817;SDS011;29868;47.360;18.984;2023-06-10T10:26:24;10.20;;;9.05;;
43817;SDS011;29868;47.360;18.984;2023-06-10T10:29:05;12.20;;;10.30;;
43817;SDS011;29868;47.360;18.984;2023-06-10T10:31:36;12.48;;;10.00;;
43817;SDS011;29868;47.360;18.984;2023-06-10T10:34:07;10.95;;;9.43;;
43817;SDS011;29868;47.360;18.984;2023-06-10T10:36:37;9.65;;;7.97;;
43817;SDS011;29868;47.360;18.984;2023-06-10T10:39:04;10.15;;;8.50;;
43817;SDS011;29868;47.360;18.984;2023-06-10T10:41:30;11.15;;;9.30;;
43817;SDS011;29868;47.360;18.984;2023-06-10T10:43:57;9.77;;;8.77;;
43817;SDS011;29868;47.360;18.984;2023-06-10T10:46:23;11.13;;;9.65;;
43817;SDS011;29868;47.360;18.984;2023-06-10T10:48:52;12.23;;;10.50;;
43817;SDS011;29868;47.360;18.984;2023-06-10T10:51:19;13.30;;;11.48;;
43817;SDS011;29868;47.360;18.984;2023-06-10T10:53:44;12.48;;;10.57;;
43817;SDS011;29868;47.360;18.984;2023-06-10T10:56:37;13.02;;;11.07;;
43817;SDS011;29868;47.360;18.984;2023-06-10T10:59:05;11.88;;;10.68;;
43817;SDS011;29868;47.360;18.984;2023-06-10T11:01:41;13.05;;;11.75;;
43817;SDS011;29868;47.360;18.984;2023-06-10T11:04:10;13.40;;;12.00;;
43817;SDS011;29868;47.360;18.984;2023-06-10T11:06:36;13.02;;;11.63;;
43817;SDS011;29868;47.360;18.984;2023-06-10T11:09:02;14.02;;;12.50;;
43817;SDS011;29868;47.360;18.984;2023-06-10T11:11:50;13.38;;;11.98;;
43817;SDS011;29868;47.360;18.984;2023-06-10T11:14:16;13.98;;;12.43;;
43817;SDS011;29868;47.360;18.984;2023-06-10T11:16:53;14.10;;;11.90;;
43817;SDS011;29868;47.360;18.984;2023-06-10T11:19:31;12.25;;;10.95;;
43817;SDS011;29868;47.360;18.984;2023-06-10T11:22:17;11.77;;;10.55;;
43817;SDS011;29868;47.360;18.984;2023-06-10T11:24:49;10.60;;;8.50;;
43817;SDS011;29868;47.360;18.984;2023-06-10T11:27:19;9.82;;;8.82;;
43817;SDS011;29868;47.360;18.984;2023-06-10T11:32:20;10.65;;;8.68;;
43817;SDS011;29868;47.360;18.984;2023-06-10T11:34:51;9.68;;;8.68;;
43817;SDS011;29868;47.360;18.984;2023-06-10T11:37:18;9.23;;;8.32;;
43817;SDS011;29868;47.360;18.984;2023-06-10T11:39:43;11.55;;;8.40;;
43817;SDS011;29868;47.360;18.984;2023-06-10T11:42:09;8.02;;;7.15;;
43817;SDS011;29868;47.360;18.984;2023-06-10T11:44:35;8.52;;;7.63;;
43817;SDS011;29868;47.360;18.984;2023-06-10T11:47:02;7.97;;;7.18;;
43817;SDS011;29868;47.360;18.984;2023-06-10T11:49:28;9.23;;;7.70;;
43817;SDS011;29868;47.360;18.984;2023-06-10T11:51:54;7.95;;;7.15;;
43817;SDS011;29868;47.360;18.984;2023-06-10T11:54:19;8.15;;;7.35;;
43817;SDS011;29868;47.360;18.984;2023-06-10T11:56:45;9.80;;;8.90;;
43817;SDS011;29868;47.360;18.984;2023-06-10T11:59:11;9.82;;;8.80;;
43817;SDS011;29868;47.360;18.984;2023-06-10T12:01:37;10.57;;;9.57;;
43817;SDS011;29868;47.360;18.984;2023-06-10T12:04:07;10.82;;;9.73;;
43817;SDS011;29868;47.360;18.984;2023-06-10T12:09:29;10.40;;;9.40;;
43817;SDS011;29868;47.360;18.984;2023-06-10T12:11:58;10.88;;;8.95;;
43817;SDS011;29868;47.360;18.984;2023-06-10T12:17:20;10.82;;;9.60;;
43817;SDS011;29868;47.360;18.984;2023-06-10T12:19:48;10.90;;;9.70;;
43817;SDS011;29868;47.360;18.984;2023-06-10T12:22:14;12.13;;;10.82;;
43817;SDS011;29868;47.360;18.984;2023-06-10T12:24:56;11.68;;;10.45;;
43817;SDS011;29868;47.360;18.984;2023-06-10T12:27:27;12.40;;;11.20;;
43817;SDS011;29868;47.360;18.984;2023-06-10T12:29:55;12.00;;;10.88;;
43817;SDS011;29868;47.360;18.984;2023-06-10T12:32:34;12.93;;;11.38;;
43817;SDS011;29868;47.360;18.984;2023-06-10T12:35:04;11.88;;;10.77;;
43817;SDS011;29868;47.360;18.984;2023-06-10T12:37:30;10.60;;;9.52;;
43817;SDS011;29868;47.360;18.984;2023-06-10T12:39:59;11.77;;;10.60;;
43817;SDS011;29868;47.360;18.984;2023-06-10T12:42:25;9.80;;;8.73;;
43817;SDS011;29868;47.360;18.984;2023-06-10T12:44:53;9.45;;;8.55;;
43817;SDS011;29868;47.360;18.984;2023-06-10T12:47:19;9.18;;;8.27;;
43817;SDS011;29868;47.360;18.984;2023-06-10T12:49:45;8.77;;;7.88;;
43817;SDS011;29868;47.360;18.984;2023-06-10T12:52:10;10.00;;;8.95;;
43817;SDS011;29868;47.360;18.984;2023-06-10T12:54:36;10.65;;;9.65;;
43817;SDS011;29868;47.360;18.984;2023-06-10T12:57:02;10.38;;;9.38;;
43817;SDS011;29868;47.360;18.984;2023-06-10T12:59:28;9.20;;;8.30;;
43817;SDS011;29868;47.360;18.984;2023-06-10T13:01:54;10.55;;;9.50;;
43817;SDS011;29868;47.360;18.984;2023-06-10T13:04:20;10.35;;;9.10;;
43817;SDS011;29868;47.360;18.984;2023-06-10T13:06:46;9.50;;;8.50;;
43817;SDS011;29868;47.360;18.984;2023-06-10T13:09:14;9.50;;;8.60;;
43817;SDS011;29868;47.360;18.984;2023-06-10T13:11:40;9.02;;;8.13;;
43817;SDS011;29868;47.360;18.984;2023-06-10T13:14:07;10.07;;;9.10;;
43817;SDS011;29868;47.360;18.984;2023-06-10T13:16:33;9.23;;;8.32;;
43817;SDS011;29868;47.360;18.984;2023-06-10T13:18:58;7.93;;;7.13;;
43817;SDS011;29868;47.360;18.984;2023-06-10T13:21:25;7.75;;;6.95;;
43817;SDS011;29868;47.360;18.984;2023-06-10T13:23:51;7.65;;;6.70;;
43817;SDS011;29868;47.360;18.984;2023-06-10T13:26:16;7.40;;;6.40;;
43817;SDS011;29868;47.360;18.984;2023-06-10T13:28:42;6.63;;;5.93;;
43817;SDS011;29868;47.360;18.984;2023-06-10T13:31:08;7.82;;;7.03;;
43817;SDS011;29868;47.360;18.984;2023-06-10T13:33:34;8.57;;;7.78;;
43817;SDS011;29868;47.360;18.984;2023-06-10T13:35:59;7.80;;;6.53;;
43817;SDS011;29868;47.360;18.984;2023-06-10T13:38:24;7.10;;;6.40;;
43817;SDS011;29868;47.360;18.984;2023-06-10T13:40:50;7.00;;;6.30;;
43817;SDS011;29868;47.360;18.984;2023-06-10T13:43:16;8.05;;;6.68;;
43817;SDS011;29868;47.360;18.984;2023-06-10T13:45:41;6.93;;;6.22;;
43817;SDS011;29868;47.360;18.984;2023-06-10T13:48:07;6.78;;;6.10;;
43817;SDS011;29868;47.360;18.984;2023-06-10T13:50:33;6.22;;;5.63;;
43817;SDS011;29868;47.360;18.984;2023-06-10T13:52:58;5.97;;;5.38;;
43817;SDS011;29868;47.360;18.984;2023-06-10T13:55:24;6.25;;;5.32;;
43817;SDS011;29868;47.360;18.984;2023-06-10T13:57:49;5.60;;;4.80;;
43817;SDS011;29868;47.360;18.984;2023-06-10T14:00:15;4.90;;;4.03;;
43817;SDS011;29868;47.360;18.984;2023-06-10T14:02:41;5.43;;;4.20;;
43817;SDS011;29868;47.360;18.984;2023-06-10T14:05:07;6.60;;;4.10;;
43817;SDS011;29868;47.360;18.984;2023-06-10T14:07:33;4.18;;;3.42;;
43817;SDS011;29868;47.360;18.984;2023-06-10T14:09:59;4.60;;;3.45;;
43817;SDS011;29868;47.360;18.984;2023-06-10T14:12:24;4.60;;;3.60;;
43817;SDS011;29868;47.360;18.984;2023-06-10T14:14:50;4.97;;;3.60;;
43817;SDS011;29868;47.360;18.984;2023-06-10T14:17:15;5.13;;;3.42;;
43817;SDS011;29868;47.360;18.984;2023-06-10T14:19:40;6.20;;;4.07;;
43817;SDS011;29868;47.360;18.984;2023-06-10T14:22:06;4.75;;;3.92;;
43817;SDS011;29868;47.360;18.984;2023-06-10T14:24:32;4.97;;;4.10;;
43817;SDS011;29868;47.360;18.984;2023-06-10T14:26:58;5.03;;;3.80;;
43817;SDS011;29868;47.360;18.984;2023-06-10T14:29:23;4.68;;;3.47;;
43817;SDS011;29868;47.360;18.984;2023-06-10T14:31:49;6.90;;;3.60;;
43817;SDS011;29868;47.360;18.984;2023-06-10T14:34:14;4.78;;;4.07;;
43817;SDS011;29868;47.360;18.984;2023-06-10T14:36:40;6.78;;;4.20;;
43817;SDS011;29868;47.360;18.984;2023-06-10T14:39:05;6.30;;;4.55;;
43817;SDS011;29868;47.360;18.984;2023-06-10T14:41:31;5.85;;;3.97;;